createdAt,value
2022-11-10T00:02:04.370Z,3.90
2022-11-10T00:04:34.235Z,4.00
2022-11-10T00:07:04.016Z,4.00
2022-11-10T00:09:32.730Z,4.00
2022-11-10T00:11:59.893Z,4.00
2022-11-10T00:14:48.647Z,3.90
2022-11-10T00:17:17.304Z,3.80
2022-11-10T00:19:45.623Z,3.70
2022-11-10T00:22:25.950Z,3.70
2022-11-10T00:24:54.816Z,3.80
2022-11-10T00:27:22.978Z,3.90
2022-11-10T00:29:51.113Z,4.00
2022-11-10T00:32:19.330Z,4.00
2022-11-10T00:34:46.427Z,4.10
2022-11-10T00:37:22.772Z,4.10
2022-11-10T00:39:52.998Z,4.10
2022-11-10T00:42:31.603Z,4.20
2022-11-10T00:44:59.589Z,4.20
2022-11-10T00:47:29.202Z,4.20
2022-11-10T00:49:59.270Z,4.20
2022-11-10T00:52:27.484Z,4.30
2022-11-10T00:54:56.093Z,4.30
2022-11-10T00:57:28.839Z,4.10
2022-11-10T01:00:00.043Z,4.00
2022-11-10T01:02:36.429Z,4.10
2022-11-10T01:08:53.717Z,4.00
2022-11-10T01:11:28.794Z,3.90
2022-11-10T01:13:57.479Z,3.80
2022-11-10T01:16:31.504Z,3.80
2022-11-10T01:19:01.818Z,3.90
2022-11-10T01:21:53.924Z,3.90
2022-11-10T01:24:24.168Z,3.90
2022-11-10T01:26:53.156Z,3.90
2022-11-10T01:29:23.525Z,3.80
2022-11-10T01:32:00.830Z,3.80
2022-11-10T01:34:29.330Z,3.80
2022-11-10T01:36:56.727Z,3.90
2022-11-10T01:39:27.146Z,3.90
2022-11-10T01:41:56.900Z,4.00
2022-11-10T01:44:26.420Z,4.00
2022-11-10T01:46:54.488Z,4.00
2022-11-10T01:49:31.479Z,4.10
2022-11-10T01:52:17.423Z,4.10
2022-11-10T01:54:52.999Z,4.10
2022-11-10T01:57:22.732Z,4.20
2022-11-10T01:59:51.855Z,4.30
2022-11-10T02:02:30.165Z,4.20
2022-11-10T02:07:53.985Z,4.40
2022-11-10T02:10:29.866Z,4.40
2022-11-10T02:12:58.760Z,4.30
2022-11-10T02:15:29.874Z,4.30
2022-11-10T02:17:59.164Z,4.30
2022-11-10T02:20:37.685Z,4.30
2022-11-10T02:23:39.618Z,4.40
2022-11-10T02:26:09.543Z,4.30
2022-11-10T02:28:47.187Z,3.90
2022-11-10T02:33:58.830Z,3.70
2022-11-10T02:36:29.179Z,3.70
2022-11-10T02:38:56.375Z,3.70
2022-11-10T02:41:25.098Z,3.80
2022-11-10T02:43:56.364Z,3.80
2022-11-10T02:46:32.593Z,3.80
2022-11-10T02:49:02.118Z,3.80
2022-11-10T02:51:40.657Z,3.80
2022-11-10T02:54:09.098Z,3.60
2022-11-10T02:56:38.563Z,3.50
2022-11-10T02:59:09.005Z,3.60
2022-11-10T03:01:38.238Z,3.60
2022-11-10T03:04:08.629Z,3.50
2022-11-10T03:06:38.510Z,3.50
2022-11-10T03:09:14.342Z,3.40
2022-11-10T03:11:42.243Z,3.50
2022-11-10T03:14:19.028Z,3.60
2022-11-10T03:16:48.030Z,3.70
2022-11-10T03:19:16.873Z,3.70
2022-11-10T03:21:45.424Z,3.60
2022-11-10T03:24:14.241Z,3.50
2022-11-10T03:26:44.869Z,3.40
2022-11-10T03:29:21.962Z,3.50
2022-11-10T03:32:00.499Z,3.50
2022-11-10T03:34:31.772Z,3.50
2022-11-10T03:37:01.314Z,3.50
2022-11-10T03:39:31.905Z,3.50
2022-11-10T03:42:00.235Z,3.60
2022-11-10T03:44:32.703Z,3.70
2022-11-10T03:47:06.309Z,3.80
2022-11-10T03:49:34.679Z,3.80
2022-11-10T03:52:03.944Z,3.90
2022-11-10T03:54:33.360Z,3.90
2022-11-10T03:57:01.764Z,3.90
2022-11-10T03:59:29.424Z,3.90
2022-11-10T04:01:57.833Z,4.00
2022-11-10T04:07:52.678Z,4.00
2022-11-10T04:10:20.954Z,4.00
2022-11-10T04:13:08.819Z,4.10
2022-11-10T04:15:47.105Z,4.10
2022-11-10T04:18:25.409Z,4.00
2022-11-10T04:21:01.833Z,4.00
2022-11-10T04:23:36.383Z,4.00
2022-11-10T04:26:31.763Z,4.00
2022-11-10T04:29:08.867Z,4.10
2022-11-10T04:31:43.743Z,4.10
2022-11-10T04:34:17.800Z,2.40
2022-11-10T04:36:46.764Z,0.40
2022-11-10T04:39:15.069Z,-0.80
2022-11-10T04:41:45.499Z,-1.40
2022-11-10T04:44:22.544Z,-1.80
2022-11-10T04:46:51.029Z,-2.10
2022-11-10T04:49:19.948Z,-2.40
2022-11-10T04:51:49.790Z,-2.50
2022-11-10T04:54:18.095Z,-2.70
2022-11-10T04:56:47.734Z,-2.80
2022-11-10T04:59:25.065Z,-2.90
2022-11-10T05:01:52.238Z,-2.90
2022-11-10T05:04:28.192Z,-2.80
2022-11-10T05:06:57.790Z,-2.90
2022-11-10T05:09:26.226Z,-2.70
2022-11-10T05:12:00.004Z,-2.90
2022-11-10T05:14:29.405Z,-3.10
2022-11-10T05:16:57.813Z,-3.20
2022-11-10T05:19:33.428Z,-3.20
2022-11-10T05:22:03.348Z,-2.80
2022-11-10T05:24:34.279Z,-1.90
2022-11-10T05:27:08.499Z,-0.40
2022-11-10T05:29:36.715Z,-1.00
2022-11-10T05:32:15.621Z,-1.90
2022-11-10T05:34:45.714Z,-2.20
2022-11-10T05:37:21.739Z,-2.40
2022-11-10T05:39:49.961Z,-2.50
2022-11-10T05:42:26.404Z,-2.30
2022-11-10T05:44:58.104Z,-2.50
2022-11-10T05:47:26.201Z,-2.70
2022-11-10T05:49:57.410Z,-2.80
2022-11-10T05:52:25.789Z,-2.90
2022-11-10T05:54:57.339Z,-2.40
2022-11-10T05:57:25.829Z,-1.60
2022-11-10T06:00:04.179Z,-0.80
2022-11-10T06:02:35.324Z,-0.20
2022-11-10T06:05:11.354Z,0.30
2022-11-10T06:07:39.645Z,0.60
2022-11-10T06:10:08.554Z,1.10
2022-11-10T06:12:40.944Z,1.80
2022-11-10T06:15:10.963Z,2.60
2022-11-10T06:17:46.848Z,3.00
2022-11-10T06:20:18.629Z,3.10
2022-11-10T06:23:03.800Z,3.20
2022-11-10T06:25:34.690Z,3.30
2022-11-10T06:28:04.261Z,3.50
2022-11-10T06:30:33.655Z,3.60
2022-11-10T06:33:11.084Z,3.60
2022-11-10T06:35:41.767Z,3.80
2022-11-10T06:38:17.078Z,4.00
2022-11-10T06:40:44.827Z,4.10
2022-11-10T06:43:14.040Z,4.20
2022-11-10T06:45:41.074Z,4.30
2022-11-10T06:48:13.852Z,4.40
2022-11-10T06:50:42.316Z,4.50
2022-11-10T06:53:13.968Z,4.60
2022-11-10T06:55:42.320Z,4.80
2022-11-10T06:58:19.059Z,4.80
2022-11-10T07:00:47.771Z,4.90
2022-11-10T07:03:18.598Z,5.00
2022-11-10T07:05:45.608Z,5.10
2022-11-10T07:08:16.792Z,5.10
2022-11-10T07:10:55.043Z,5.20
2022-11-10T07:13:25.612Z,5.20
2022-11-10T07:15:56.244Z,5.30
2022-11-10T07:18:28.442Z,5.30
2022-11-10T07:21:05.750Z,5.40
2022-11-10T07:23:42.160Z,5.30
2022-11-10T07:26:10.665Z,5.30
2022-11-10T07:28:41.060Z,5.30
2022-11-10T07:31:10.519Z,5.40
2022-11-10T07:33:39.042Z,5.30
2022-11-10T07:36:10.013Z,5.30
2022-11-10T07:38:41.489Z,5.40
2022-11-10T07:41:08.603Z,5.40
2022-11-10T07:43:39.003Z,5.50
2022-11-10T07:46:09.456Z,5.60
2022-11-10T07:48:38.243Z,5.60
2022-11-10T07:51:18.905Z,5.70
2022-11-10T07:53:51.589Z,5.80
2022-11-10T07:56:31.556Z,5.90
2022-11-10T07:59:01.016Z,6.00
2022-11-10T08:01:38.324Z,6.00
2022-11-10T08:04:09.689Z,6.10
2022-11-10T08:06:39.804Z,6.30
2022-11-10T08:09:08.539Z,6.30
2022-11-10T08:11:38.229Z,6.20
2022-11-10T08:14:09.625Z,6.30
2022-11-10T08:16:37.829Z,6.30
2022-11-10T08:19:08.139Z,6.40
2022-11-10T08:21:38.385Z,6.50
2022-11-10T08:24:14.687Z,6.50
2022-11-10T08:26:41.761Z,6.50
2022-11-10T08:29:11.419Z,6.50
2022-11-10T08:31:39.898Z,6.60
2022-11-10T08:34:09.920Z,6.60
2022-11-10T08:36:47.104Z,6.70
2022-11-10T08:39:30.219Z,6.70
2022-11-10T08:42:06.485Z,6.70
2022-11-10T08:44:35.295Z,6.80
2022-11-10T08:47:04.070Z,6.80
2022-11-10T08:49:32.744Z,6.90
2022-11-10T08:52:02.219Z,6.90
2022-11-10T08:54:32.772Z,6.90
2022-11-10T08:57:02.875Z,7.00
2022-11-10T08:59:31.389Z,6.90
2022-11-10T09:02:01.180Z,7.00
2022-11-10T09:04:31.522Z,7.00
2022-11-10T09:07:01.734Z,7.10
2022-11-10T09:09:29.849Z,7.10
2022-11-10T09:11:56.881Z,7.10
2022-11-10T09:14:26.810Z,7.10
2022-11-10T09:16:56.415Z,7.10
2022-11-10T09:19:32.465Z,7.10
2022-11-10T09:22:04.684Z,7.10
2022-11-10T09:24:31.778Z,7.10
2022-11-10T09:26:59.989Z,7.10
2022-11-10T09:29:29.526Z,7.10
2022-11-10T09:31:56.560Z,7.10
2022-11-10T09:34:28.404Z,7.20
2022-11-10T09:37:05.109Z,7.30
2022-11-10T09:39:43.086Z,7.30
2022-11-10T09:42:48.780Z,7.30
2022-11-10T09:45:37.768Z,7.40
2022-11-10T09:48:35.580Z,7.40
2022-11-10T09:51:10.594Z,7.50
2022-11-10T09:54:05.690Z,7.50
2022-11-10T09:56:42.424Z,7.60
2022-11-10T09:59:38.026Z,7.60
2022-11-10T10:02:51.525Z,7.60
2022-11-10T10:05:41.600Z,7.70
2022-11-10T10:08:38.038Z,7.70
2022-11-10T10:11:42.400Z,7.60
2022-11-10T10:14:33.800Z,7.70
2022-11-10T10:17:42.711Z,7.70
2022-11-10T10:20:45.373Z,7.80
2022-11-10T10:24:11.562Z,7.80
2022-11-10T10:26:54.821Z,7.90
2022-11-10T10:29:43.805Z,7.90
2022-11-10T10:32:21.545Z,8.00
2022-11-10T10:34:52.196Z,8.00
2022-11-10T10:38:16.850Z,8.10
2022-11-10T10:40:54.756Z,8.20
2022-11-10T10:43:23.295Z,8.20
2022-11-10T10:46:12.203Z,8.30
2022-11-10T10:48:40.719Z,8.30
2022-11-10T10:51:09.514Z,8.40
2022-11-10T10:53:54.249Z,8.40
2022-11-10T10:56:30.790Z,8.50
2022-11-10T10:59:05.284Z,8.60
2022-11-10T11:01:40.049Z,8.60
2022-11-10T11:04:29.345Z,8.70
2022-11-10T11:07:23.160Z,8.70
2022-11-10T11:09:53.002Z,8.80
2022-11-10T11:12:22.859Z,8.80
2022-11-10T11:14:51.037Z,8.80
2022-11-10T11:17:27.824Z,8.90
2022-11-10T11:20:00.098Z,8.90
2022-11-10T11:22:56.915Z,8.90
2022-11-10T11:25:35.643Z,8.90
2022-11-10T11:28:45.398Z,8.90
2022-11-10T11:31:42.681Z,9.00
2022-11-10T11:34:31.859Z,9.00
2022-11-10T11:38:00.450Z,9.00
2022-11-10T11:40:57.300Z,9.00
2022-11-10T11:43:50.645Z,9.00
2022-11-10T11:47:22.418Z,9.00
2022-11-10T11:50:20.507Z,9.00
2022-11-10T11:53:29.470Z,9.00
2022-11-10T11:56:24.207Z,8.60
2022-11-10T11:59:09.243Z,6.70
2022-11-10T12:01:57.010Z,5.20
2022-11-10T12:04:47.783Z,4.40
2022-11-10T12:07:32.976Z,4.00
2022-11-10T12:10:20.298Z,3.90
2022-11-10T12:13:22.932Z,3.80
2022-11-10T12:16:27.042Z,4.00
2022-11-10T12:19:32.604Z,4.90
2022-11-10T12:22:42.140Z,5.90
2022-11-10T12:25:53.144Z,6.50
2022-11-10T12:28:42.188Z,7.00
2022-11-10T12:31:23.398Z,7.30
2022-11-10T12:37:27.798Z,7.90
2022-11-10T12:40:12.063Z,8.10
2022-11-10T12:42:42.520Z,8.20
2022-11-10T12:45:33.067Z,8.40
2022-11-10T12:48:05.417Z,8.40
2022-11-10T12:51:03.520Z,8.50
2022-11-10T12:53:40.532Z,8.60
2022-11-10T12:56:47.833Z,8.60
2022-11-10T12:59:30.675Z,8.60
2022-11-10T13:02:06.238Z,8.70
2022-11-10T13:04:36.540Z,8.70
2022-11-10T13:07:13.667Z,8.70
2022-11-10T13:09:44.627Z,8.60
2022-11-10T13:12:19.337Z,8.70
2022-11-10T13:15:26.241Z,8.70
2022-11-10T13:17:56.515Z,8.90
2022-11-10T13:20:54.143Z,8.90
2022-11-10T13:23:47.187Z,9.00
2022-11-10T13:26:49.582Z,9.00
2022-11-10T13:29:57.699Z,9.10
2022-11-10T13:32:39.986Z,9.20
2022-11-10T13:35:30.388Z,9.20
2022-11-10T13:38:07.598Z,9.20
2022-11-10T13:40:37.677Z,9.20
2022-11-10T13:43:29.454Z,9.30
2022-11-10T13:46:03.319Z,9.30
2022-11-10T13:48:58.600Z,9.40
2022-11-10T13:52:11.004Z,9.40
2022-11-10T13:55:18.363Z,9.40
2022-11-10T13:58:09.201Z,9.50
2022-11-10T14:00:39.374Z,9.50
2022-11-10T14:03:30.489Z,9.60
2022-11-10T14:06:27.458Z,9.60
2022-11-10T14:09:39.848Z,9.70
2022-11-10T14:12:34.155Z,9.80
2022-11-10T14:15:20.354Z,9.80
2022-11-10T14:17:55.421Z,9.80
2022-11-10T14:20:35.799Z,9.70
2022-11-10T14:23:07.334Z,9.70
2022-11-10T14:25:40.743Z,9.70
2022-11-10T14:28:30.921Z,9.70
2022-11-10T14:31:01.562Z,9.60
2022-11-10T14:33:29.493Z,9.60
2022-11-10T14:36:24.404Z,9.60
2022-11-10T14:38:54.763Z,9.50
2022-11-10T14:41:48.443Z,9.40
2022-11-10T14:44:27.884Z,9.40
2022-11-10T14:47:04.834Z,9.30
2022-11-10T14:49:35.579Z,9.30
2022-11-10T14:52:03.532Z,9.30
2022-11-10T14:54:33.154Z,9.20
2022-11-10T14:57:13.039Z,9.20
2022-11-10T14:59:43.866Z,9.20
2022-11-10T15:02:16.319Z,9.10
2022-11-10T15:04:53.352Z,9.10
2022-11-10T15:07:23.467Z,9.10
2022-11-10T15:10:38.344Z,9.20
2022-11-10T15:13:34.096Z,9.10
2022-11-10T15:16:41.810Z,9.00
2022-11-10T15:19:37.689Z,9.00
2022-11-10T15:22:14.753Z,8.90
2022-11-10T15:24:51.566Z,8.80
2022-11-10T15:27:33.538Z,8.80
2022-11-10T15:30:03.462Z,8.70
2022-11-10T15:32:49.330Z,8.60
2022-11-10T15:35:31.900Z,8.60
2022-11-10T15:38:40.873Z,8.60
2022-11-10T15:41:34.755Z,8.60
2022-11-10T15:44:20.709Z,8.50
2022-11-10T15:46:55.098Z,8.60
2022-11-10T15:49:48.614Z,8.50
2022-11-10T15:52:22.236Z,8.50
2022-11-10T15:54:52.799Z,8.50
2022-11-10T15:57:24.896Z,8.50
2022-11-10T15:59:55.673Z,8.50
2022-11-10T16:02:28.519Z,8.50
2022-11-10T16:07:44.119Z,7.90
2022-11-10T16:10:13.889Z,5.80
2022-11-10T16:12:42.467Z,4.30
2022-11-10T16:15:19.912Z,3.30
2022-11-10T16:17:55.832Z,2.60
2022-11-10T16:20:31.909Z,2.30
2022-11-10T16:22:58.860Z,1.90
2022-11-10T16:25:29.140Z,1.70
2022-11-10T16:27:56.824Z,1.30
2022-11-10T16:30:26.139Z,1.10
2022-11-10T16:32:55.700Z,2.90
2022-11-10T16:35:23.687Z,4.40
2022-11-10T16:37:53.641Z,5.20
2022-11-10T16:40:26.022Z,5.80
2022-11-10T16:42:54.424Z,6.00
2022-11-10T16:45:31.087Z,6.20
2022-11-10T16:48:08.279Z,6.50
2022-11-10T16:50:39.289Z,6.70
2022-11-10T16:53:16.964Z,6.90
2022-11-10T16:55:44.743Z,7.00
2022-11-10T16:58:12.624Z,7.00
2022-11-10T17:00:41.754Z,6.90
2022-11-10T17:03:25.230Z,7.00
2022-11-10T17:08:39.063Z,7.40
2022-11-10T17:11:09.506Z,7.50
2022-11-10T17:13:47.694Z,7.50
2022-11-10T17:16:33.881Z,7.50
2022-11-10T17:19:06.741Z,7.50
2022-11-10T17:21:46.836Z,7.50
2022-11-10T17:24:24.682Z,7.50
2022-11-10T17:26:54.060Z,7.50
2022-11-10T17:29:24.679Z,7.60
2022-11-10T17:31:54.320Z,7.60
2022-11-10T17:34:25.895Z,7.60
2022-11-10T17:36:55.755Z,7.50
2022-11-10T17:39:23.766Z,7.40
2022-11-10T17:41:52.041Z,7.30
2022-11-10T17:44:22.209Z,7.20
2022-11-10T17:46:54.985Z,7.10
2022-11-10T17:49:27.211Z,7.10
2022-11-10T17:51:55.938Z,7.00
2022-11-10T17:54:27.230Z,6.90
2022-11-10T17:56:59.000Z,6.90
2022-11-10T17:59:34.111Z,7.00
2022-11-10T18:02:13.460Z,7.10
2022-11-10T18:07:28.744Z,7.00
2022-11-10T18:09:56.105Z,7.00
2022-11-10T18:12:28.151Z,7.20
2022-11-10T18:14:59.311Z,7.20
2022-11-10T18:17:27.710Z,7.30
2022-11-10T18:20:02.986Z,7.30
2022-11-10T18:22:36.367Z,7.30
2022-11-10T18:25:09.323Z,7.20
2022-11-10T18:27:42.118Z,6.90
2022-11-10T18:30:13.244Z,6.80
2022-11-10T18:32:41.197Z,6.90
2022-11-10T18:35:11.082Z,6.90
2022-11-10T18:37:44.259Z,6.90
2022-11-10T18:40:17.103Z,6.90
2022-11-10T18:42:51.777Z,7.00
2022-11-10T18:45:25.466Z,7.00
2022-11-10T18:47:57.599Z,7.10
2022-11-10T18:50:31.930Z,7.10
2022-11-10T18:53:10.271Z,7.10
2022-11-10T18:55:44.424Z,7.10
2022-11-10T18:58:28.012Z,7.10
2022-11-10T19:01:12.993Z,7.20
2022-11-10T19:03:47.509Z,7.30
2022-11-10T19:06:26.791Z,7.20
2022-11-10T19:09:01.682Z,7.10
2022-11-10T19:11:35.808Z,7.00
2022-11-10T19:14:21.515Z,6.90
2022-11-10T19:16:53.537Z,6.90
2022-11-10T19:19:25.101Z,6.90
2022-11-10T19:22:04.584Z,6.80
2022-11-10T19:25:00.976Z,6.60
2022-11-10T19:27:37.190Z,6.40
2022-11-10T19:30:08.791Z,6.40
2022-11-10T19:32:42.189Z,6.50
2022-11-10T19:35:18.641Z,6.50
2022-11-10T19:37:53.462Z,6.60
2022-11-10T19:40:31.194Z,6.60
2022-11-10T19:43:02.045Z,6.70
2022-11-10T19:45:42.165Z,6.60
2022-11-10T19:48:21.213Z,6.40
2022-11-10T19:51:00.782Z,6.30
2022-11-10T19:53:36.156Z,6.30
2022-11-10T19:56:30.460Z,6.20
2022-11-10T19:59:02.909Z,6.30
2022-11-10T20:01:54.691Z,6.30
2022-11-10T20:04:25.908Z,6.30
2022-11-10T20:07:17.227Z,6.30
2022-11-10T20:09:50.633Z,6.40
2022-11-10T20:12:32.496Z,6.20
2022-11-10T20:15:16.020Z,6.20
2022-11-10T20:17:45.765Z,6.20
2022-11-10T20:20:25.330Z,6.10
2022-11-10T20:23:02.733Z,6.00
2022-11-10T20:25:33.885Z,5.90
2022-11-10T20:28:07.537Z,5.90
2022-11-10T20:30:39.830Z,5.90
2022-11-10T20:33:08.875Z,5.90
2022-11-10T20:36:05.433Z,5.90
2022-11-10T20:38:35.782Z,6.00
2022-11-10T20:41:32.726Z,6.10
2022-11-10T20:44:08.437Z,6.00
2022-11-10T20:46:54.167Z,5.90
2022-11-10T20:49:41.953Z,6.00
2022-11-10T20:52:09.749Z,6.00
2022-11-10T20:54:40.156Z,5.90
2022-11-10T20:57:10.025Z,5.80
2022-11-10T20:59:40.133Z,5.60
2022-11-10T21:02:07.479Z,5.30
2022-11-10T21:04:42.696Z,5.20
2022-11-10T21:07:12.995Z,5.30
2022-11-10T21:09:42.157Z,5.40
2022-11-10T21:12:33.058Z,5.50
2022-11-10T21:15:08.633Z,5.50
2022-11-10T21:17:41.498Z,5.50
2022-11-10T21:20:14.536Z,5.50
2022-11-10T21:22:43.113Z,5.40
2022-11-10T21:25:21.881Z,5.30
2022-11-10T21:27:57.341Z,5.20
2022-11-10T21:30:34.148Z,5.20
2022-11-10T21:33:01.384Z,5.20
2022-11-10T21:35:40.650Z,5.20
2022-11-10T21:38:14.883Z,5.20
2022-11-10T21:40:52.283Z,5.20
2022-11-10T21:43:22.898Z,5.20
2022-11-10T21:46:00.733Z,5.00
2022-11-10T21:48:30.153Z,5.00
2022-11-10T21:51:10.232Z,5.00
2022-11-10T21:53:40.268Z,5.10
2022-11-10T21:56:17.153Z,5.10
2022-11-10T21:58:45.177Z,5.00
2022-11-10T22:01:18.414Z,4.70
2022-11-10T22:03:46.193Z,4.60
2022-11-10T22:06:20.526Z,4.60
2022-11-10T22:08:50.733Z,4.50
2022-11-10T22:11:42.107Z,4.50
2022-11-10T22:14:32.931Z,4.50
2022-11-10T22:17:25.577Z,4.50
2022-11-10T22:19:55.547Z,4.50
2022-11-10T22:22:24.862Z,4.50
2022-11-10T22:24:51.833Z,4.60
2022-11-10T22:27:22.967Z,4.60
2022-11-10T22:29:51.477Z,4.70
2022-11-10T22:32:20.861Z,4.90
2022-11-10T22:34:50.851Z,5.10
2022-11-10T22:37:27.516Z,5.20
2022-11-10T22:40:16.432Z,4.50
2022-11-10T22:43:05.533Z,2.80
2022-11-10T22:45:33.941Z,1.40
2022-11-10T22:48:25.278Z,0.60
2022-11-10T22:51:02.147Z,0.20
2022-11-10T22:53:31.677Z,0.10
2022-11-10T22:56:01.750Z,-0.10
2022-11-10T22:58:31.897Z,-0.20
2022-11-10T23:01:23.973Z,-0.20
2022-11-10T23:04:00.503Z,-0.20
2022-11-10T23:06:29.837Z,0.00
2022-11-10T23:09:06.831Z,0.10
2022-11-10T23:11:37.971Z,-0.10
2022-11-10T23:14:06.245Z,-0.10
2022-11-10T23:16:38.404Z,0.10
2022-11-10T23:19:06.712Z,0.60
2022-11-10T23:21:44.078Z,1.10
2022-11-10T23:24:15.715Z,1.50
2022-11-10T23:26:52.464Z,1.90
2022-11-10T23:29:23.796Z,2.40
2022-11-10T23:31:52.220Z,2.60
2022-11-10T23:34:21.625Z,2.90
2022-11-10T23:36:57.297Z,3.50
2022-11-10T23:39:25.710Z,4.10
2022-11-10T23:41:56.237Z,4.30
2022-11-10T23:44:26.452Z,4.40
2022-11-10T23:46:56.898Z,4.50
2022-11-10T23:49:23.857Z,4.60
2022-11-10T23:51:52.526Z,4.70
2022-11-10T23:54:29.091Z,4.80
2022-11-10T23:56:57.483Z,4.80
2022-11-10T23:59:26.147Z,4.80
